createdAt,value
2022-11-29T00:01:03.048Z,35.17
2022-11-29T00:03:30.868Z,33.07
2022-11-29T00:06:04.478Z,33.07
2022-11-29T00:08:32.097Z,28.57
2022-11-29T00:11:05.702Z,32.60
2022-11-29T00:13:33.307Z,31.33
2022-11-29T00:16:05.596Z,29.70
2022-11-29T00:18:33.305Z,31.97
2022-11-29T00:21:01.275Z,32.43
2022-11-29T00:23:28.910Z,32.27
2022-11-29T00:25:56.470Z,33.37
2022-11-29T00:28:25.420Z,33.13
2022-11-29T00:30:53.318Z,36.57
2022-11-29T00:33:20.954Z,36.00
2022-11-29T00:35:48.571Z,36.27
2022-11-29T00:38:16.184Z,33.60
2022-11-29T00:40:43.829Z,36.03
2022-11-29T00:43:11.406Z,36.47
2022-11-29T00:45:40.407Z,36.50
2022-11-29T00:48:08.491Z,39.13
2022-11-29T00:50:36.100Z,42.73
2022-11-29T00:53:03.772Z,41.23
2022-11-29T00:55:31.367Z,43.50
2022-11-29T00:57:58.954Z,45.17
2022-11-29T01:00:26.541Z,45.43
2022-11-29T01:02:55.496Z,44.20
2022-11-29T01:05:23.121Z,44.20
2022-11-29T01:07:50.776Z,43.80
2022-11-29T01:10:18.538Z,48.03
2022-11-29T01:12:46.205Z,44.73
2022-11-29T01:15:14.216Z,45.63
2022-11-29T01:17:41.969Z,51.13
2022-11-29T01:20:13.457Z,53.27
2022-11-29T01:22:41.284Z,50.63
2022-11-29T01:25:11.629Z,49.30
2022-11-29T01:27:39.294Z,51.93
2022-11-29T01:30:09.552Z,56.57
2022-11-29T01:32:37.513Z,55.43
2022-11-29T01:35:06.821Z,53.53
2022-11-29T01:37:35.842Z,59.00
2022-11-29T01:40:03.453Z,54.23
2022-11-29T01:42:31.059Z,56.57
2022-11-29T01:45:21.902Z,58.57
2022-11-29T01:47:52.420Z,56.47
2022-11-29T01:50:20.521Z,54.10
2022-11-29T01:52:49.923Z,56.10
2022-11-29T01:55:19.387Z,58.60
2022-11-29T01:57:47.720Z,58.37
2022-11-29T02:00:19.516Z,56.20
2022-11-29T02:02:52.945Z,55.67
2022-11-29T02:05:21.662Z,59.70
2022-11-29T02:07:54.078Z,57.13
2022-11-29T02:10:27.065Z,58.47
2022-11-29T02:13:02.683Z,58.33
2022-11-29T02:15:39.944Z,58.07
2022-11-29T02:18:11.422Z,60.93
2022-11-29T02:21:13.057Z,61.87
2022-11-29T02:24:12.241Z,61.93
2022-11-29T02:27:08.984Z,62.17
2022-11-29T02:30:02.520Z,60.20
2022-11-29T02:33:07.630Z,60.20
2022-11-29T02:35:55.544Z,58.67
2022-11-29T02:38:42.150Z,59.40
2022-11-29T02:41:28.287Z,57.77
2022-11-29T02:44:34.212Z,62.67
2022-11-29T02:47:14.336Z,64.00
2022-11-29T02:50:00.533Z,63.47
2022-11-29T02:52:46.150Z,67.10
2022-11-29T02:55:19.167Z,67.73
2022-11-29T02:57:56.273Z,61.63
2022-11-29T03:00:24.901Z,66.03
2022-11-29T03:03:01.867Z,64.77
2022-11-29T03:05:41.145Z,67.03
2022-11-29T03:08:17.559Z,70.00
2022-11-29T03:10:56.670Z,67.00
2022-11-29T03:13:35.481Z,65.17
2022-11-29T03:16:12.180Z,67.50
2022-11-29T03:18:51.698Z,64.67
2022-11-29T03:21:33.361Z,67.87
2022-11-29T03:24:06.416Z,68.60
2022-11-29T03:26:39.508Z,69.93
2022-11-29T03:29:12.008Z,70.40
2022-11-29T03:31:45.502Z,71.30
2022-11-29T03:34:20.910Z,72.63
2022-11-29T03:36:57.124Z,74.50
2022-11-29T03:39:31.285Z,70.80
2022-11-29T03:42:04.402Z,70.03
2022-11-29T03:44:40.798Z,64.37
2022-11-29T03:47:13.663Z,64.43
2022-11-29T03:49:48.436Z,70.20
2022-11-29T03:52:22.390Z,71.03
2022-11-29T03:54:58.073Z,72.33
2022-11-29T03:57:32.534Z,69.00
2022-11-29T04:00:06.549Z,69.03
2022-11-29T04:03:16.832Z,68.37
2022-11-29T04:06:12.119Z,68.27
2022-11-29T04:09:19.580Z,63.33
2022-11-29T04:12:06.879Z,69.97
2022-11-29T04:15:15.713Z,68.93
2022-11-29T04:18:07.210Z,68.03
2022-11-29T04:20:50.970Z,69.13
2022-11-29T04:23:46.517Z,76.33
2022-11-29T04:26:54.734Z,72.57
2022-11-29T04:29:40.319Z,77.13
2022-11-29T04:32:27.399Z,68.87
2022-11-29T04:35:10.697Z,68.50
2022-11-29T04:38:06.101Z,75.90
2022-11-29T04:40:49.541Z,75.70
2022-11-29T04:43:38.503Z,71.03
2022-11-29T04:46:23.676Z,71.87
2022-11-29T04:49:11.987Z,73.33
2022-11-29T04:52:03.084Z,73.17
2022-11-29T04:54:37.244Z,73.73
2022-11-29T04:57:10.415Z,73.63
2022-11-29T04:59:45.177Z,75.97
2022-11-29T05:02:26.505Z,71.17
2022-11-29T05:05:00.479Z,68.57
2022-11-29T05:07:34.230Z,68.47
2022-11-29T05:10:07.899Z,70.03
2022-11-29T05:12:43.962Z,75.87
2022-11-29T05:15:36.201Z,80.93
2022-11-29T05:18:14.475Z,70.10
2022-11-29T05:20:47.918Z,71.00
2022-11-29T05:23:37.918Z,72.83
2022-11-29T05:26:11.703Z,71.07
2022-11-29T05:28:51.495Z,68.50
2022-11-29T05:31:51.561Z,75.27
2022-11-29T05:34:38.614Z,77.00
2022-11-29T05:37:19.464Z,68.60
2022-11-29T05:40:04.527Z,78.87
2022-11-29T05:43:06.109Z,75.50
2022-11-29T05:45:40.017Z,75.13
2022-11-29T05:48:18.691Z,75.27
2022-11-29T05:50:50.445Z,73.67
2022-11-29T05:53:24.602Z,78.27
2022-11-29T05:56:02.172Z,75.80
2022-11-29T05:58:45.119Z,75.07
2022-11-29T06:01:21.760Z,74.17
2022-11-29T06:04:00.974Z,75.77
2022-11-29T06:06:36.428Z,73.80
2022-11-29T06:09:14.575Z,75.00
2022-11-29T06:11:46.373Z,72.97
2022-11-29T06:14:28.198Z,68.63
2022-11-29T06:17:10.980Z,73.60
2022-11-29T06:19:56.160Z,76.80
2022-11-29T06:22:59.170Z,73.97
2022-11-29T06:25:49.700Z,75.23
2022-11-29T06:28:33.383Z,73.67
2022-11-29T06:31:06.500Z,72.03
2022-11-29T06:33:41.515Z,72.37
2022-11-29T06:36:19.003Z,80.57
2022-11-29T06:38:46.960Z,75.73
2022-11-29T06:41:20.006Z,74.67
2022-11-29T06:43:48.667Z,75.90
2022-11-29T06:46:27.876Z,72.87
2022-11-29T06:49:06.944Z,78.63
2022-11-29T06:51:45.671Z,76.40
2022-11-29T06:54:28.034Z,76.00
2022-11-29T06:57:04.349Z,69.67
2022-11-29T06:59:42.790Z,75.77
2022-11-29T07:02:29.178Z,77.13
2022-11-29T07:05:13.969Z,77.97
2022-11-29T07:07:43.624Z,73.23
2022-11-29T07:10:17.990Z,63.10
2022-11-29T07:12:46.875Z,69.40
2022-11-29T07:15:16.422Z,68.10
2022-11-29T07:17:54.065Z,75.90
2022-11-29T07:20:30.988Z,75.33
2022-11-29T07:23:07.879Z,72.33
2022-11-29T07:25:44.031Z,68.33
2022-11-29T07:28:23.160Z,78.07
2022-11-29T07:31:00.106Z,71.13
2022-11-29T07:33:35.473Z,74.10
2022-11-29T07:36:10.859Z,67.17
2022-11-29T07:38:59.148Z,76.87
2022-11-29T07:41:31.800Z,71.13
2022-11-29T07:44:07.735Z,74.50
2022-11-29T07:46:35.555Z,73.47
2022-11-29T07:49:03.177Z,76.80
2022-11-29T07:51:32.166Z,78.63
2022-11-29T07:54:01.313Z,75.77
2022-11-29T07:56:29.129Z,82.40
2022-11-29T07:58:56.840Z,75.43
2022-11-29T08:01:24.582Z,75.37
2022-11-29T08:03:52.171Z,73.60
2022-11-29T08:06:25.644Z,79.00
2022-11-29T08:08:53.378Z,74.60
2022-11-29T08:11:22.306Z,80.53
2022-11-29T08:13:50.082Z,76.77
2022-11-29T08:16:18.641Z,75.13
2022-11-29T08:18:46.293Z,76.10
2022-11-29T08:21:17.893Z,70.37
2022-11-29T08:23:45.634Z,77.20
2022-11-29T08:26:13.759Z,76.17
2022-11-29T08:28:42.947Z,80.77
2022-11-29T08:31:13.571Z,76.57
2022-11-29T08:33:43.900Z,69.20
2022-11-29T08:36:13.672Z,82.37
2022-11-29T08:38:41.663Z,76.50
2022-11-29T08:41:11.890Z,82.17
2022-11-29T08:43:39.515Z,74.37
2022-11-29T08:46:11.312Z,80.13
2022-11-29T08:48:41.559Z,73.53
2022-11-29T08:51:09.152Z,80.43
2022-11-29T08:53:41.936Z,72.27
2022-11-29T08:56:41.827Z,75.97
2022-11-29T08:58:59.107Z,80.87
2022-11-29T09:01:29.270Z,72.83
2022-11-29T09:04:07.630Z,76.77
2022-11-29T09:06:39.692Z,72.63
2022-11-29T09:09:07.438Z,80.43
2022-11-29T09:11:36.732Z,77.53
2022-11-29T09:14:06.713Z,75.60
2022-11-29T09:16:38.231Z,78.27
2022-11-29T09:19:06.524Z,70.50
2022-11-29T09:21:36.710Z,78.17
2022-11-29T09:24:06.809Z,68.97
2022-11-29T09:26:37.833Z,76.30
2022-11-29T09:29:07.505Z,73.50
2022-11-29T09:31:36.567Z,76.13
2022-11-29T09:34:04.653Z,76.97
2022-11-29T09:36:32.394Z,72.60
2022-11-29T09:39:02.563Z,71.50
2022-11-29T09:41:51.404Z,74.30
2022-11-29T09:44:27.257Z,73.90
2022-11-29T09:47:02.247Z,74.93
2022-11-29T09:49:45.821Z,70.53
2022-11-29T09:52:23.171Z,73.30
2022-11-29T09:55:02.015Z,77.00
2022-11-29T09:57:32.253Z,71.03
2022-11-29T10:00:03.304Z,74.93
2022-11-29T10:02:38.914Z,71.43
2022-11-29T10:05:12.295Z,75.60
2022-11-29T10:07:44.055Z,77.33
2022-11-29T10:10:19.684Z,71.57
2022-11-29T10:12:51.619Z,73.60
2022-11-29T10:15:23.683Z,73.50
2022-11-29T10:17:56.671Z,76.23
2022-11-29T10:20:26.669Z,76.77
2022-11-29T10:22:58.594Z,74.93
2022-11-29T10:25:31.642Z,81.17
2022-11-29T10:27:59.588Z,78.30
2022-11-29T10:30:27.211Z,70.50
2022-11-29T10:33:01.461Z,78.43
2022-11-29T10:35:29.430Z,74.73
2022-11-29T10:40:55.514Z,73.57
2022-11-29T10:43:24.858Z,75.20
2022-11-29T10:45:56.181Z,71.67
2022-11-29T10:48:31.601Z,70.63
2022-11-29T10:50:59.733Z,71.33
2022-11-29T10:53:31.485Z,73.57
2022-11-29T10:56:03.120Z,76.17
2022-11-29T10:58:32.204Z,84.37
2022-11-29T11:01:02.024Z,72.37
2022-11-29T11:03:38.223Z,71.40
2022-11-29T11:06:10.699Z,72.67
2022-11-29T11:08:42.232Z,73.87
2022-11-29T11:11:10.964Z,81.17
2022-11-29T11:13:39.174Z,72.33
2022-11-29T11:16:20.985Z,72.27
2022-11-29T11:18:49.960Z,72.80
2022-11-29T11:21:21.366Z,70.77
2022-11-29T11:23:57.567Z,71.07
2022-11-29T11:26:27.979Z,67.67
2022-11-29T11:29:00.106Z,66.10
2022-11-29T11:31:30.623Z,67.23
2022-11-29T11:34:26.164Z,72.03
2022-11-29T11:36:54.144Z,78.47
2022-11-29T11:39:23.943Z,73.43
2022-11-29T11:42:10.642Z,73.53
2022-11-29T11:44:49.804Z,68.60
2022-11-29T11:47:20.657Z,61.90
2022-11-29T11:49:55.304Z,71.80
2022-11-29T11:52:25.650Z,65.13
2022-11-29T11:54:56.324Z,68.07
2022-11-29T11:57:25.947Z,68.57
2022-11-29T11:59:55.848Z,72.20
2022-11-29T12:02:29.751Z,70.97
2022-11-29T12:05:03.271Z,64.03
2022-11-29T12:08:05.994Z,66.90
2022-11-29T12:10:27.903Z,75.70
2022-11-29T12:12:58.183Z,64.33
2022-11-29T12:15:29.535Z,65.77
2022-11-29T12:18:02.779Z,67.03
2022-11-29T12:20:38.065Z,73.70
2022-11-29T12:23:24.552Z,68.13
2022-11-29T12:25:57.107Z,74.30
2022-11-29T12:28:29.367Z,71.43
2022-11-29T12:31:04.279Z,70.07
2022-11-29T12:33:43.283Z,68.17
2022-11-29T12:36:23.636Z,74.07
2022-11-29T12:39:12.494Z,74.53
2022-11-29T12:41:53.930Z,69.27
2022-11-29T12:44:33.392Z,77.30
2022-11-29T12:47:37.915Z,76.33
2022-11-29T12:50:05.902Z,73.13
2022-11-29T12:52:43.036Z,71.20
2022-11-29T12:55:20.915Z,74.33
2022-11-29T12:57:58.134Z,68.43
2022-11-29T13:00:29.943Z,73.70
2022-11-29T13:03:07.833Z,73.20
2022-11-29T13:05:45.091Z,76.70
2022-11-29T13:08:30.085Z,73.77
2022-11-29T13:11:06.939Z,67.83
2022-11-29T13:13:40.539Z,71.53
2022-11-29T13:16:23.935Z,77.63
2022-11-29T13:19:00.983Z,78.27
2022-11-29T13:21:35.745Z,75.23
2022-11-29T13:24:09.121Z,75.33
2022-11-29T13:26:39.128Z,81.80
2022-11-29T13:29:08.585Z,72.00
2022-11-29T13:31:37.672Z,77.90
2022-11-29T13:34:10.501Z,82.23
2022-11-29T13:36:46.888Z,72.20
2022-11-29T13:39:37.137Z,80.07
2022-11-29T13:42:09.343Z,79.13
2022-11-29T13:44:45.869Z,74.93
2022-11-29T13:47:15.404Z,79.57
2022-11-29T13:49:58.399Z,72.07
2022-11-29T13:52:37.141Z,68.83
2022-11-29T13:55:18.235Z,82.00
2022-11-29T13:58:14.961Z,78.97
2022-11-29T14:00:50.883Z,83.27
2022-11-29T14:03:35.644Z,74.63
2022-11-29T14:06:15.664Z,74.63
2022-11-29T14:09:21.179Z,78.93
2022-11-29T14:11:55.905Z,80.33
2022-11-29T14:14:29.289Z,79.47
2022-11-29T14:17:00.288Z,81.77
2022-11-29T14:19:33.345Z,79.43
2022-11-29T14:22:22.296Z,80.23
2022-11-29T14:25:49.946Z,77.13
2022-11-29T14:28:33.703Z,81.17
2022-11-29T14:31:02.416Z,78.87
2022-11-29T14:33:39.912Z,71.87
2022-11-29T14:36:31.109Z,78.50
2022-11-29T14:39:12.827Z,69.60
2022-11-29T14:41:55.267Z,80.03
2022-11-29T14:44:28.207Z,77.60
2022-11-29T14:47:04.973Z,80.03
2022-11-29T14:49:39.409Z,71.90
2022-11-29T14:52:18.642Z,79.47
2022-11-29T14:54:56.279Z,85.53
2022-11-29T14:57:56.264Z,73.77
2022-11-29T15:00:26.762Z,79.07
2022-11-29T15:02:58.248Z,76.77
2022-11-29T15:05:33.540Z,81.40
2022-11-29T15:08:09.453Z,73.80
2022-11-29T15:10:41.060Z,82.80
2022-11-29T15:13:12.946Z,77.43
2022-11-29T15:16:05.723Z,77.00
2022-11-29T15:18:59.911Z,76.90
2022-11-29T15:21:36.712Z,73.83
2022-11-29T15:24:11.693Z,73.23
2022-11-29T15:26:39.368Z,75.33
2022-11-29T15:29:13.819Z,74.87
2022-11-29T15:31:44.636Z,81.00
2022-11-29T15:34:21.754Z,77.20
2022-11-29T15:36:49.369Z,80.00
2022-11-29T15:39:29.244Z,81.33
2022-11-29T15:42:02.356Z,75.80
2022-11-29T15:44:32.557Z,76.53
2022-11-29T15:49:54.699Z,73.57
2022-11-29T15:52:29.823Z,83.20
2022-11-29T15:55:01.638Z,76.00
2022-11-29T15:57:34.507Z,75.90
2022-11-29T16:00:04.928Z,78.87
2022-11-29T16:02:35.002Z,75.00
2022-11-29T16:05:10.991Z,73.17
2022-11-29T16:07:40.495Z,83.13
2022-11-29T16:10:14.319Z,78.80
2022-11-29T16:12:53.291Z,76.30
2022-11-29T16:15:30.379Z,81.87
2022-11-29T16:18:04.161Z,69.97
2022-11-29T16:20:33.256Z,75.97
2022-11-29T16:23:11.218Z,80.10
2022-11-29T16:25:52.746Z,85.03
2022-11-29T16:28:20.711Z,74.00
2022-11-29T16:30:48.407Z,79.43
2022-11-29T16:33:23.141Z,69.83
2022-11-29T16:36:03.306Z,78.33
2022-11-29T16:38:30.954Z,66.67
2022-11-29T16:41:04.861Z,76.53
2022-11-29T16:43:53.654Z,78.57
2022-11-29T16:46:31.059Z,77.70
2022-11-29T16:49:02.423Z,75.73
2022-11-29T16:51:40.739Z,76.83
2022-11-29T16:54:23.906Z,79.20
2022-11-29T16:56:52.564Z,83.53
2022-11-29T16:59:27.346Z,81.17
2022-11-29T17:01:56.480Z,75.17
2022-11-29T17:04:25.218Z,77.30
2022-11-29T17:06:54.983Z,78.20
2022-11-29T17:09:25.648Z,84.20
2022-11-29T17:11:53.685Z,75.83
2022-11-29T17:14:21.329Z,79.20
2022-11-29T17:16:50.437Z,69.23
2022-11-29T17:19:18.275Z,84.93
2022-11-29T17:21:46.749Z,85.90
2022-11-29T17:24:18.614Z,83.43
2022-11-29T17:26:46.598Z,74.33
2022-11-29T17:29:15.429Z,87.93
2022-11-29T17:31:44.680Z,81.13
2022-11-29T17:34:13.061Z,87.47
2022-11-29T17:36:40.946Z,78.67
2022-11-29T17:39:09.364Z,83.67
2022-11-29T17:41:38.412Z,79.80
2022-11-29T17:44:06.272Z,90.53
2022-11-29T17:46:35.816Z,85.27
2022-11-29T17:49:05.397Z,86.70
2022-11-29T17:54:21.856Z,83.60
2022-11-29T17:56:50.819Z,85.00
2022-11-29T17:59:18.481Z,85.10
2022-11-29T18:01:47.879Z,86.87
2022-11-29T18:04:15.816Z,83.20
2022-11-29T18:06:43.552Z,86.23
2022-11-29T18:09:12.843Z,81.10
2022-11-29T18:11:48.230Z,85.27
2022-11-29T18:14:20.271Z,88.80
2022-11-29T18:16:48.000Z,87.37
2022-11-29T18:19:17.654Z,87.90
2022-11-29T18:21:45.629Z,83.07
2022-11-29T18:24:13.420Z,89.07
2022-11-29T18:26:41.739Z,85.37
2022-11-29T18:29:10.480Z,94.93
2022-11-29T18:31:41.577Z,92.07
2022-11-29T18:34:10.959Z,94.30
2022-11-29T18:36:42.739Z,96.70
2022-11-29T18:39:13.843Z,90.77
2022-11-29T18:41:43.527Z,100.63
2022-11-29T18:44:12.907Z,95.80
2022-11-29T18:46:43.941Z,96.70
2022-11-29T18:49:12.923Z,96.13
2022-11-29T18:51:42.718Z,92.73
2022-11-29T18:54:10.479Z,81.17
2022-11-29T18:56:38.496Z,93.47
2022-11-29T18:59:08.436Z,92.30
2022-11-29T19:01:40.636Z,87.57
2022-11-29T19:04:10.879Z,90.93
2022-11-29T19:06:39.869Z,96.67
2022-11-29T19:09:09.728Z,94.70
2022-11-29T19:11:37.414Z,97.43
2022-11-29T19:14:12.022Z,95.70
2022-11-29T19:16:41.345Z,96.83
2022-11-29T19:19:10.847Z,100.30
2022-11-29T19:21:39.678Z,97.50
2022-11-29T19:24:13.570Z,95.10
2022-11-29T19:26:43.073Z,96.27
2022-11-29T19:29:11.017Z,97.30
2022-11-29T19:31:39.301Z,94.17
2022-11-29T19:34:07.282Z,100.03
2022-11-29T19:36:37.304Z,101.00
2022-11-29T19:39:05.599Z,96.87
2022-11-29T19:41:35.169Z,94.27
2022-11-29T19:44:04.995Z,93.93
2022-11-29T19:46:34.828Z,105.30
2022-11-29T19:49:03.549Z,92.53
2022-11-29T19:51:31.677Z,102.10
2022-11-29T19:54:02.959Z,106.77
2022-11-29T19:56:32.274Z,101.20
2022-11-29T19:59:00.600Z,101.73
2022-11-29T20:01:39.326Z,103.17
2022-11-29T20:04:08.774Z,98.50
2022-11-29T20:06:36.570Z,100.90
2022-11-29T20:09:06.372Z,96.23
2022-11-29T20:11:34.061Z,99.03
2022-11-29T20:14:03.699Z,92.03
2022-11-29T20:16:32.449Z,101.83
2022-11-29T20:19:01.659Z,104.13
2022-11-29T20:21:31.415Z,105.40
2022-11-29T20:24:01.756Z,96.77
2022-11-29T20:26:32.677Z,105.60
2022-11-29T20:29:01.734Z,102.07
2022-11-29T20:31:29.491Z,102.63
2022-11-29T20:33:58.229Z,106.80
2022-11-29T20:36:40.447Z,103.37
2022-11-29T20:39:18.295Z,105.20
2022-11-29T20:42:00.315Z,103.40
2022-11-29T20:44:37.196Z,103.80
2022-11-29T20:47:13.452Z,100.57
2022-11-29T20:49:41.534Z,106.93
2022-11-29T20:52:15.403Z,100.93
2022-11-29T20:54:43.081Z,111.73
2022-11-29T20:57:12.186Z,112.30
2022-11-29T20:59:39.882Z,110.37
2022-11-29T21:02:07.650Z,112.40
2022-11-29T21:04:35.303Z,110.47
2022-11-29T21:07:02.925Z,118.47
2022-11-29T21:09:30.508Z,104.30
2022-11-29T21:11:58.724Z,109.00
2022-11-29T21:14:28.344Z,117.47
2022-11-29T21:16:56.566Z,107.47
2022-11-29T21:19:27.849Z,115.30
2022-11-29T21:22:06.823Z,111.27
2022-11-29T21:24:49.119Z,117.77
2022-11-29T21:27:23.656Z,111.57
2022-11-29T21:29:53.340Z,111.77
2022-11-29T21:32:24.050Z,116.33
2022-11-29T21:34:51.807Z,122.60
2022-11-29T21:37:21.551Z,122.20
2022-11-29T21:39:51.327Z,117.80
2022-11-29T21:42:19.253Z,125.73
2022-11-29T21:44:47.166Z,118.63
2022-11-29T21:47:16.330Z,114.30
2022-11-29T21:49:44.114Z,116.30
2022-11-29T21:52:11.704Z,121.60
2022-11-29T21:54:40.032Z,119.10
2022-11-29T21:57:07.641Z,121.13
2022-11-29T21:59:35.247Z,133.33
2022-11-29T22:02:03.051Z,124.53
2022-11-29T22:04:32.401Z,118.53
2022-11-29T22:06:59.974Z,128.63
2022-11-29T22:09:27.561Z,138.47
2022-11-29T22:11:55.185Z,132.30
2022-11-29T22:14:23.727Z,134.60
2022-11-29T22:16:53.490Z,117.57
2022-11-29T22:19:23.411Z,123.87
2022-11-29T22:21:53.967Z,134.37
2022-11-29T22:24:23.468Z,132.80
2022-11-29T22:26:52.290Z,131.87
2022-11-29T22:29:20.401Z,127.20
2022-11-29T22:31:50.693Z,131.93
2022-11-29T22:34:18.296Z,131.77
2022-11-29T22:36:46.177Z,122.97
2022-11-29T22:39:15.433Z,111.13
2022-11-29T22:41:43.232Z,127.60
2022-11-29T22:44:10.904Z,121.37
2022-11-29T22:46:41.039Z,118.53
2022-11-29T22:49:08.838Z,113.43
2022-11-29T22:51:37.899Z,111.67
2022-11-29T22:54:07.829Z,124.60
2022-11-29T22:56:40.300Z,111.93
2022-11-29T22:59:08.798Z,122.00
2022-11-29T23:01:38.360Z,114.67
2022-11-29T23:04:08.221Z,114.97
2022-11-29T23:06:37.882Z,122.23
2022-11-29T23:09:07.821Z,107.50
2022-11-29T23:11:37.180Z,118.87
2022-11-29T23:14:04.990Z,101.13
2022-11-29T23:16:32.823Z,117.27
2022-11-29T23:19:01.731Z,107.20
2022-11-29T23:21:31.051Z,116.43
2022-11-29T23:24:00.842Z,108.63
2022-11-29T23:26:30.281Z,114.40
2022-11-29T23:28:59.566Z,116.30
2022-11-29T23:31:27.230Z,107.73
2022-11-29T23:33:55.149Z,114.60
2022-11-29T23:36:22.762Z,108.53
2022-11-29T23:38:50.488Z,107.00
2022-11-29T23:41:18.331Z,110.87
2022-11-29T23:43:46.059Z,114.97
2022-11-29T23:46:16.674Z,106.83
2022-11-29T23:48:44.683Z,98.57
2022-11-29T23:51:13.027Z,113.83
2022-11-29T23:53:41.130Z,95.10
2022-11-29T23:56:12.059Z,102.03
2022-11-29T23:58:40.297Z,109.53
